sensor_id;sensor_type;location;lat;lon;timestamp;P1;durP1;ratioP1;P2;durP2;ratioP2
2720;SDS011;1368;49.484;11.112;2023-02-28T00:00:09;6.57;;;3.87;;
2720;SDS011;1368;49.484;11.112;2023-02-28T00:02:40;6.87;;;3.93;;
2720;SDS011;1368;49.484;11.112;2023-02-28T00:05:07;8.40;;;4.87;;
2720;SDS011;1368;49.484;11.112;2023-02-28T00:07:34;8.10;;;4.70;;
2720;SDS011;1368;49.484;11.112;2023-02-28T00:10:00;8.17;;;4.60;;
2720;SDS011;1368;49.484;11.112;2023-02-28T00:12:26;9.23;;;5.30;;
2720;SDS011;1368;49.484;11.112;2023-02-28T00:14:51;7.50;;;5.20;;
2720;SDS011;1368;49.484;11.112;2023-02-28T00:17:17;8.43;;;5.13;;
2720;SDS011;1368;49.484;11.112;2023-02-28T00:19:46;8.10;;;4.63;;
2720;SDS011;1368;49.484;11.112;2023-02-28T00:22:13;6.67;;;4.83;;
2720;SDS011;1368;49.484;11.112;2023-02-28T00:24:40;17.43;;;4.87;;
2720;SDS011;1368;49.484;11.112;2023-02-28T00:27:05;7.10;;;4.60;;
2720;SDS011;1368;49.484;11.112;2023-02-28T00:29:31;9.07;;;5.83;;
2720;SDS011;1368;49.484;11.112;2023-02-28T00:31:56;8.30;;;5.03;;
2720;SDS011;1368;49.484;11.112;2023-02-28T00:34:22;6.70;;;4.23;;
2720;SDS011;1368;49.484;11.112;2023-02-28T00:36:47;8.80;;;4.33;;
2720;SDS011;1368;49.484;11.112;2023-02-28T00:39:16;7.53;;;4.67;;
2720;SDS011;1368;49.484;11.112;2023-02-28T00:41:41;7.30;;;4.40;;
2720;SDS011;1368;49.484;11.112;2023-02-28T00:44:07;7.10;;;4.40;;
2720;SDS011;1368;49.484;11.112;2023-02-28T00:46:33;8.13;;;4.80;;
2720;SDS011;1368;49.484;11.112;2023-02-28T00:48:58;9.23;;;4.53;;
2720;SDS011;1368;49.484;11.112;2023-02-28T00:51:24;9.97;;;5.10;;
2720;SDS011;1368;49.484;11.112;2023-02-28T00:53:49;10.43;;;5.33;;
2720;SDS011;1368;49.484;11.112;2023-02-28T00:56:15;7.10;;;5.00;;
2720;SDS011;1368;49.484;11.112;2023-02-28T00:58:40;9.00;;;5.67;;
2720;SDS011;1368;49.484;11.112;2023-02-28T01:01:06;8.27;;;5.07;;
2720;SDS011;1368;49.484;11.112;2023-02-28T01:03:32;11.17;;;5.40;;
2720;SDS011;1368;49.484;11.112;2023-02-28T01:05:57;6.80;;;4.00;;
2720;SDS011;1368;49.484;11.112;2023-02-28T01:08:23;8.00;;;4.97;;
2720;SDS011;1368;49.484;11.112;2023-02-28T01:10:49;10.50;;;6.10;;
2720;SDS011;1368;49.484;11.112;2023-02-28T01:13:15;9.83;;;4.57;;
2720;SDS011;1368;49.484;11.112;2023-02-28T01:15:41;7.67;;;5.30;;
2720;SDS011;1368;49.484;11.112;2023-02-28T01:18:11;9.63;;;4.97;;
2720;SDS011;1368;49.484;11.112;2023-02-28T01:20:37;7.23;;;4.13;;
2720;SDS011;1368;49.484;11.112;2023-02-28T01:23:03;8.20;;;5.03;;
2720;SDS011;1368;49.484;11.112;2023-02-28T01:25:28;7.57;;;5.13;;
2720;SDS011;1368;49.484;11.112;2023-02-28T01:27:54;9.07;;;4.80;;
2720;SDS011;1368;49.484;11.112;2023-02-28T01:30:20;8.53;;;5.20;;
2720;SDS011;1368;49.484;11.112;2023-02-28T01:32:45;8.43;;;5.00;;
2720;SDS011;1368;49.484;11.112;2023-02-28T01:35:11;6.87;;;4.80;;
2720;SDS011;1368;49.484;11.112;2023-02-28T01:37:36;7.87;;;5.47;;
2720;SDS011;1368;49.484;11.112;2023-02-28T01:40:02;7.80;;;4.83;;
2720;SDS011;1368;49.484;11.112;2023-02-28T01:42:28;8.37;;;5.33;;
2720;SDS011;1368;49.484;11.112;2023-02-28T01:47:22;10.10;;;4.80;;
2720;SDS011;1368;49.484;11.112;2023-02-28T01:50:02;7.87;;;4.57;;
2720;SDS011;1368;49.484;11.112;2023-02-28T01:52:33;10.40;;;5.93;;
2720;SDS011;1368;49.484;11.112;2023-02-28T01:54:59;9.60;;;4.80;;
2720;SDS011;1368;49.484;11.112;2023-02-28T01:57:29;11.20;;;6.73;;
2720;SDS011;1368;49.484;11.112;2023-02-28T02:02:34;8.60;;;4.90;;
2720;SDS011;1368;49.484;11.112;2023-02-28T02:05:35;9.80;;;5.03;;
2720;SDS011;1368;49.484;11.112;2023-02-28T02:07:56;8.87;;;5.03;;
2720;SDS011;1368;49.484;11.112;2023-02-28T02:10:31;10.03;;;5.60;;
2720;SDS011;1368;49.484;11.112;2023-02-28T02:19:28;8.27;;;5.13;;
2720;SDS011;1368;49.484;11.112;2023-02-28T02:22:21;7.57;;;3.80;;
2720;SDS011;1368;49.484;11.112;2023-02-28T02:39:48;12.17;;;6.63;;
2720;SDS011;1368;49.484;11.112;2023-02-28T02:45:09;8.20;;;4.93;;
2720;SDS011;1368;49.484;11.112;2023-02-28T02:47:40;12.63;;;6.73;;
2720;SDS011;1368;49.484;11.112;2023-02-28T02:50:08;10.50;;;6.07;;
2720;SDS011;1368;49.484;11.112;2023-02-28T02:52:42;8.30;;;6.13;;
2720;SDS011;1368;49.484;11.112;2023-02-28T02:55:12;6.60;;;4.30;;
2720;SDS011;1368;49.484;11.112;2023-02-28T02:57:40;14.27;;;6.90;;
2720;SDS011;1368;49.484;11.112;2023-02-28T03:00:14;9.43;;;5.90;;
2720;SDS011;1368;49.484;11.112;2023-02-28T03:02:42;11.53;;;6.50;;
2720;SDS011;1368;49.484;11.112;2023-02-28T03:05:17;11.57;;;5.73;;
2720;SDS011;1368;49.484;11.112;2023-02-28T03:07:46;11.97;;;6.03;;
2720;SDS011;1368;49.484;11.112;2023-02-28T03:10:28;13.27;;;6.33;;
2720;SDS011;1368;49.484;11.112;2023-02-28T03:15:48;10.83;;;6.60;;
2720;SDS011;1368;49.484;11.112;2023-02-28T03:24:18;10.37;;;5.97;;
2720;SDS011;1368;49.484;11.112;2023-02-28T03:26:59;11.18;;;6.40;;
2720;SDS011;1368;49.484;11.112;2023-02-28T03:29:58;11.20;;;7.47;;
2720;SDS011;1368;49.484;11.112;2023-02-28T03:32:48;14.73;;;7.70;;
2720;SDS011;1368;49.484;11.112;2023-02-28T03:35:23;12.53;;;7.30;;
2720;SDS011;1368;49.484;11.112;2023-02-28T03:38:09;10.47;;;6.83;;
2720;SDS011;1368;49.484;11.112;2023-02-28T03:40:51;14.00;;;6.73;;
2720;SDS011;1368;49.484;11.112;2023-02-28T03:43:26;11.23;;;7.00;;
2720;SDS011;1368;49.484;11.112;2023-02-28T03:45:56;12.27;;;7.90;;
2720;SDS011;1368;49.484;11.112;2023-02-28T03:48:27;10.33;;;5.13;;
2720;SDS011;1368;49.484;11.112;2023-02-28T03:51:08;15.63;;;8.10;;
2720;SDS011;1368;49.484;11.112;2023-02-28T03:53:50;10.77;;;7.33;;
2720;SDS011;1368;49.484;11.112;2023-02-28T03:56:20;12.57;;;6.43;;
2720;SDS011;1368;49.484;11.112;2023-02-28T04:01:43;15.40;;;6.53;;
2720;SDS011;1368;49.484;11.112;2023-02-28T04:04:11;12.93;;;8.10;;
2720;SDS011;1368;49.484;11.112;2023-02-28T04:06:38;19.43;;;8.77;;
2720;SDS011;1368;49.484;11.112;2023-02-28T04:09:05;12.67;;;8.73;;
2720;SDS011;1368;49.484;11.112;2023-02-28T04:11:33;10.40;;;7.50;;
2720;SDS011;1368;49.484;11.112;2023-02-28T04:14:09;10.40;;;7.53;;
2720;SDS011;1368;49.484;11.112;2023-02-28T04:16:37;11.93;;;7.03;;
2720;SDS011;1368;49.484;11.112;2023-02-28T04:19:05;14.20;;;7.40;;
2720;SDS011;1368;49.484;11.112;2023-02-28T04:21:36;11.77;;;8.00;;
2720;SDS011;1368;49.484;11.112;2023-02-28T04:24:04;11.97;;;7.37;;
2720;SDS011;1368;49.484;11.112;2023-02-28T04:26:34;19.07;;;8.90;;
2720;SDS011;1368;49.484;11.112;2023-02-28T04:29:02;15.13;;;8.63;;
2720;SDS011;1368;49.484;11.112;2023-02-28T04:31:29;19.47;;;9.10;;
2720;SDS011;1368;49.484;11.112;2023-02-28T04:33:55;15.93;;;8.63;;
2720;SDS011;1368;49.484;11.112;2023-02-28T04:36:21;16.03;;;8.10;;
2720;SDS011;1368;49.484;11.112;2023-02-28T04:38:48;11.03;;;7.20;;
2720;SDS011;1368;49.484;11.112;2023-02-28T04:41:13;12.10;;;8.30;;
2720;SDS011;1368;49.484;11.112;2023-02-28T04:43:39;16.90;;;8.77;;
2720;SDS011;1368;49.484;11.112;2023-02-28T04:46:05;13.40;;;8.47;;
2720;SDS011;1368;49.484;11.112;2023-02-28T04:48:32;9.70;;;6.20;;
2720;SDS011;1368;49.484;11.112;2023-02-28T04:51:03;13.63;;;8.90;;
2720;SDS011;1368;49.484;11.112;2023-02-28T04:53:31;13.30;;;8.80;;
2720;SDS011;1368;49.484;11.112;2023-02-28T04:55:56;12.03;;;7.40;;
2720;SDS011;1368;49.484;11.112;2023-02-28T04:58:22;14.40;;;7.37;;
2720;SDS011;1368;49.484;11.112;2023-02-28T05:00:48;13.03;;;9.00;;
2720;SDS011;1368;49.484;11.112;2023-02-28T05:03:14;13.73;;;7.67;;
2720;SDS011;1368;49.484;11.112;2023-02-28T05:05:40;11.90;;;7.80;;
2720;SDS011;1368;49.484;11.112;2023-02-28T05:08:06;11.83;;;7.70;;
2720;SDS011;1368;49.484;11.112;2023-02-28T05:10:31;12.57;;;7.90;;
2720;SDS011;1368;49.484;11.112;2023-02-28T05:12:57;12.57;;;7.87;;
2720;SDS011;1368;49.484;11.112;2023-02-28T05:15:23;13.27;;;8.17;;
2720;SDS011;1368;49.484;11.112;2023-02-28T05:17:49;15.47;;;7.47;;
2720;SDS011;1368;49.484;11.112;2023-02-28T05:20:14;12.83;;;7.30;;
2720;SDS011;1368;49.484;11.112;2023-02-28T05:22:40;12.00;;;7.70;;
2720;SDS011;1368;49.484;11.112;2023-02-28T05:25:08;13.67;;;7.80;;
2720;SDS011;1368;49.484;11.112;2023-02-28T05:27:37;14.43;;;8.43;;
2720;SDS011;1368;49.484;11.112;2023-02-28T05:30:03;13.27;;;8.10;;
2720;SDS011;1368;49.484;11.112;2023-02-28T05:32:31;11.47;;;7.30;;
2720;SDS011;1368;49.484;11.112;2023-02-28T05:34:56;12.67;;;9.10;;
2720;SDS011;1368;49.484;11.112;2023-02-28T05:37:22;17.80;;;9.40;;
2720;SDS011;1368;49.484;11.112;2023-02-28T05:39:47;14.27;;;8.00;;
2720;SDS011;1368;49.484;11.112;2023-02-28T05:42:13;15.10;;;9.13;;
2720;SDS011;1368;49.484;11.112;2023-02-28T05:44:38;16.73;;;9.60;;
2720;SDS011;1368;49.484;11.112;2023-02-28T05:47:04;14.30;;;8.03;;
2720;SDS011;1368;49.484;11.112;2023-02-28T05:49:29;14.23;;;8.70;;
2720;SDS011;1368;49.484;11.112;2023-02-28T05:51:55;14.40;;;9.57;;
2720;SDS011;1368;49.484;11.112;2023-02-28T05:54:21;16.20;;;8.83;;
2720;SDS011;1368;49.484;11.112;2023-02-28T05:56:46;13.77;;;8.53;;
2720;SDS011;1368;49.484;11.112;2023-02-28T05:59:12;13.40;;;8.50;;
2720;SDS011;1368;49.484;11.112;2023-02-28T06:04:06;14.17;;;9.33;;
2720;SDS011;1368;49.484;11.112;2023-02-28T06:06:33;14.53;;;9.67;;
2720;SDS011;1368;49.484;11.112;2023-02-28T06:08:59;12.73;;;8.23;;
2720;SDS011;1368;49.484;11.112;2023-02-28T06:11:26;13.90;;;8.63;;
2720;SDS011;1368;49.484;11.112;2023-02-28T06:13:56;14.87;;;8.73;;
2720;SDS011;1368;49.484;11.112;2023-02-28T06:16:24;13.07;;;5.83;;
2720;SDS011;1368;49.484;11.112;2023-02-28T06:18:51;17.80;;;9.40;;
2720;SDS011;1368;49.484;11.112;2023-02-28T06:21:17;15.33;;;8.33;;
2720;SDS011;1368;49.484;11.112;2023-02-28T06:23:43;16.33;;;9.10;;
2720;SDS011;1368;49.484;11.112;2023-02-28T06:26:09;15.60;;;8.90;;
2720;SDS011;1368;49.484;11.112;2023-02-28T06:28:36;13.90;;;9.60;;
2720;SDS011;1368;49.484;11.112;2023-02-28T06:31:11;14.07;;;9.70;;
2720;SDS011;1368;49.484;11.112;2023-02-28T06:33:39;12.13;;;7.77;;
2720;SDS011;1368;49.484;11.112;2023-02-28T06:36:06;15.60;;;7.20;;
2720;SDS011;1368;49.484;11.112;2023-02-28T06:38:32;12.33;;;7.37;;
2720;SDS011;1368;49.484;11.112;2023-02-28T06:40:58;16.10;;;9.33;;
2720;SDS011;1368;49.484;11.112;2023-02-28T06:43:25;14.90;;;8.50;;
2720;SDS011;1368;49.484;11.112;2023-02-28T06:45:55;17.50;;;11.07;;
2720;SDS011;1368;49.484;11.112;2023-02-28T06:48:21;12.43;;;9.03;;
2720;SDS011;1368;49.484;11.112;2023-02-28T06:50:47;16.87;;;8.30;;
2720;SDS011;1368;49.484;11.112;2023-02-28T06:53:13;14.60;;;8.43;;
2720;SDS011;1368;49.484;11.112;2023-02-28T06:55:39;13.03;;;8.80;;
2720;SDS011;1368;49.484;11.112;2023-02-28T06:58:04;13.47;;;8.90;;
2720;SDS011;1368;49.484;11.112;2023-02-28T07:00:40;12.47;;;8.20;;
2720;SDS011;1368;49.484;11.112;2023-02-28T07:03:07;12.63;;;8.20;;
2720;SDS011;1368;49.484;11.112;2023-02-28T07:05:34;15.00;;;10.53;;
2720;SDS011;1368;49.484;11.112;2023-02-28T07:08:01;15.07;;;9.13;;
2720;SDS011;1368;49.484;11.112;2023-02-28T07:10:28;11.90;;;8.10;;
2720;SDS011;1368;49.484;11.112;2023-02-28T07:12:54;15.70;;;7.93;;
2720;SDS011;1368;49.484;11.112;2023-02-28T07:15:19;13.73;;;9.00;;
2720;SDS011;1368;49.484;11.112;2023-02-28T07:17:45;13.40;;;9.90;;
2720;SDS011;1368;49.484;11.112;2023-02-28T07:20:11;14.90;;;9.30;;
2720;SDS011;1368;49.484;11.112;2023-02-28T07:22:37;14.37;;;10.00;;
2720;SDS011;1368;49.484;11.112;2023-02-28T07:25:03;12.53;;;8.50;;
2720;SDS011;1368;49.484;11.112;2023-02-28T07:27:29;12.37;;;8.87;;
2720;SDS011;1368;49.484;11.112;2023-02-28T07:29:55;13.20;;;8.53;;
2720;SDS011;1368;49.484;11.112;2023-02-28T07:32:21;16.87;;;9.33;;
2720;SDS011;1368;49.484;11.112;2023-02-28T07:34:46;11.63;;;8.53;;
2720;SDS011;1368;49.484;11.112;2023-02-28T07:37:13;12.63;;;8.90;;
2720;SDS011;1368;49.484;11.112;2023-02-28T07:39:39;12.90;;;9.17;;
2720;SDS011;1368;49.484;11.112;2023-02-28T07:42:07;14.00;;;9.77;;
2720;SDS011;1368;49.484;11.112;2023-02-28T07:44:35;17.87;;;10.10;;
2720;SDS011;1368;49.484;11.112;2023-02-28T07:47:05;11.70;;;9.00;;
2720;SDS011;1368;49.484;11.112;2023-02-28T07:49:35;14.90;;;10.40;;
2720;SDS011;1368;49.484;11.112;2023-02-28T07:52:02;11.60;;;8.97;;
2720;SDS011;1368;49.484;11.112;2023-02-28T07:54:29;15.67;;;9.53;;
2720;SDS011;1368;49.484;11.112;2023-02-28T07:56:54;15.70;;;10.67;;
2720;SDS011;1368;49.484;11.112;2023-02-28T07:59:20;14.40;;;9.00;;
2720;SDS011;1368;49.484;11.112;2023-02-28T08:01:45;13.30;;;9.47;;
2720;SDS011;1368;49.484;11.112;2023-02-28T08:04:11;13.33;;;9.10;;
2720;SDS011;1368;49.484;11.112;2023-02-28T08:06:36;15.70;;;9.67;;
2720;SDS011;1368;49.484;11.112;2023-02-28T08:09:02;13.57;;;9.93;;
2720;SDS011;1368;49.484;11.112;2023-02-28T08:11:28;14.43;;;10.23;;
2720;SDS011;1368;49.484;11.112;2023-02-28T08:13:54;13.60;;;9.53;;
2720;SDS011;1368;49.484;11.112;2023-02-28T08:16:20;16.83;;;9.33;;
2720;SDS011;1368;49.484;11.112;2023-02-28T08:18:47;15.50;;;10.60;;
2720;SDS011;1368;49.484;11.112;2023-02-28T08:21:14;12.53;;;9.87;;
2720;SDS011;1368;49.484;11.112;2023-02-28T08:23:40;14.40;;;9.53;;
2720;SDS011;1368;49.484;11.112;2023-02-28T08:26:06;15.70;;;10.47;;
2720;SDS011;1368;49.484;11.112;2023-02-28T08:28:32;16.87;;;11.27;;
2720;SDS011;1368;49.484;11.112;2023-02-28T08:30:58;15.97;;;10.27;;
2720;SDS011;1368;49.484;11.112;2023-02-28T08:33:24;16.37;;;9.80;;
2720;SDS011;1368;49.484;11.112;2023-02-28T08:35:53;14.97;;;9.40;;
2720;SDS011;1368;49.484;11.112;2023-02-28T08:38:20;14.80;;;10.80;;
2720;SDS011;1368;49.484;11.112;2023-02-28T08:40:46;13.60;;;9.37;;
2720;SDS011;1368;49.484;11.112;2023-02-28T08:43:11;16.20;;;10.20;;
2720;SDS011;1368;49.484;11.112;2023-02-28T08:45:37;13.30;;;9.73;;
2720;SDS011;1368;49.484;11.112;2023-02-28T08:48:02;11.23;;;8.27;;
2720;SDS011;1368;49.484;11.112;2023-02-28T08:50:28;18.80;;;10.30;;
2720;SDS011;1368;49.484;11.112;2023-02-28T08:52:54;14.47;;;10.40;;
2720;SDS011;1368;49.484;11.112;2023-02-28T08:55:19;14.37;;;10.40;;
2720;SDS011;1368;49.484;11.112;2023-02-28T08:57:45;20.70;;;10.77;;
2720;SDS011;1368;49.484;11.112;2023-02-28T09:00:10;14.90;;;9.17;;
2720;SDS011;1368;49.484;11.112;2023-02-28T09:02:38;15.60;;;10.80;;
2720;SDS011;1368;49.484;11.112;2023-02-28T09:05:05;14.43;;;9.73;;
2720;SDS011;1368;49.484;11.112;2023-02-28T09:07:31;15.67;;;10.00;;
2720;SDS011;1368;49.484;11.112;2023-02-28T09:09:56;14.33;;;9.33;;
2720;SDS011;1368;49.484;11.112;2023-02-28T09:12:26;16.80;;;11.10;;
2720;SDS011;1368;49.484;11.112;2023-02-28T09:14:52;18.00;;;11.30;;
2720;SDS011;1368;49.484;11.112;2023-02-28T09:17:18;17.07;;;11.13;;
2720;SDS011;1368;49.484;11.112;2023-02-28T09:19:44;18.60;;;10.27;;
2720;SDS011;1368;49.484;11.112;2023-02-28T09:22:12;18.27;;;11.60;;
2720;SDS011;1368;49.484;11.112;2023-02-28T09:24:37;18.30;;;10.43;;
2720;SDS011;1368;49.484;11.112;2023-02-28T09:27:04;16.17;;;10.90;;
2720;SDS011;1368;49.484;11.112;2023-02-28T09:29:30;15.37;;;10.23;;
2720;SDS011;1368;49.484;11.112;2023-02-28T09:31:57;13.27;;;9.40;;
2720;SDS011;1368;49.484;11.112;2023-02-28T09:34:23;17.77;;;10.07;;
2720;SDS011;1368;49.484;11.112;2023-02-28T09:36:49;12.97;;;9.03;;
2720;SDS011;1368;49.484;11.112;2023-02-28T09:39:19;15.23;;;8.30;;
2720;SDS011;1368;49.484;11.112;2023-02-28T09:41:47;16.23;;;10.00;;
2720;SDS011;1368;49.484;11.112;2023-02-28T09:47:05;13.80;;;9.97;;
2720;SDS011;1368;49.484;11.112;2023-02-28T09:49:42;13.93;;;9.93;;
2720;SDS011;1368;49.484;11.112;2023-02-28T09:52:13;13.30;;;9.37;;
2720;SDS011;1368;49.484;11.112;2023-02-28T09:54:42;11.80;;;8.80;;
2720;SDS011;1368;49.484;11.112;2023-02-28T09:59:48;12.93;;;9.00;;
2720;SDS011;1368;49.484;11.112;2023-02-28T10:02:19;14.60;;;9.50;;
2720;SDS011;1368;49.484;11.112;2023-02-28T10:04:47;12.87;;;7.90;;
2720;SDS011;1368;49.484;11.112;2023-02-28T10:07:22;15.43;;;8.63;;
2720;SDS011;1368;49.484;11.112;2023-02-28T10:10:30;16.07;;;10.23;;
2720;SDS011;1368;49.484;11.112;2023-02-28T10:13:02;13.67;;;9.20;;
2720;SDS011;1368;49.484;11.112;2023-02-28T10:15:31;14.63;;;9.20;;
2720;SDS011;1368;49.484;11.112;2023-02-28T10:18:02;13.47;;;9.13;;
2720;SDS011;1368;49.484;11.112;2023-02-28T10:20:34;13.60;;;10.23;;
2720;SDS011;1368;49.484;11.112;2023-02-28T10:23:07;14.40;;;8.87;;
2720;SDS011;1368;49.484;11.112;2023-02-28T10:25:42;14.27;;;10.00;;
2720;SDS011;1368;49.484;11.112;2023-02-28T10:28:14;14.70;;;9.33;;
2720;SDS011;1368;49.484;11.112;2023-02-28T10:30:42;14.70;;;9.90;;
2720;SDS011;1368;49.484;11.112;2023-02-28T10:33:19;16.00;;;9.80;;
2720;SDS011;1368;49.484;11.112;2023-02-28T10:35:45;11.17;;;7.53;;
2720;SDS011;1368;49.484;11.112;2023-02-28T10:38:15;14.83;;;9.97;;
2720;SDS011;1368;49.484;11.112;2023-02-28T10:40:46;12.77;;;8.67;;
2720;SDS011;1368;49.484;11.112;2023-02-28T10:45:52;13.37;;;9.30;;
2720;SDS011;1368;49.484;11.112;2023-02-28T10:48:29;12.13;;;8.60;;
2720;SDS011;1368;49.484;11.112;2023-02-28T10:50:58;13.57;;;8.07;;
2720;SDS011;1368;49.484;11.112;2023-02-28T11:06:44;14.70;;;9.63;;
2720;SDS011;1368;49.484;11.112;2023-02-28T11:09:16;12.87;;;9.67;;
2720;SDS011;1368;49.484;11.112;2023-02-28T11:11:49;11.00;;;9.00;;
2720;SDS011;1368;49.484;11.112;2023-02-28T11:14:19;14.63;;;10.40;;
2720;SDS011;1368;49.484;11.112;2023-02-28T11:16:47;17.27;;;9.33;;
2720;SDS011;1368;49.484;11.112;2023-02-28T11:19:22;14.77;;;9.80;;
2720;SDS011;1368;49.484;11.112;2023-02-28T11:21:57;11.73;;;9.13;;
2720;SDS011;1368;49.484;11.112;2023-02-28T11:26:56;15.37;;;9.87;;
2720;SDS011;1368;49.484;11.112;2023-02-28T11:29:23;14.27;;;11.00;;
2720;SDS011;1368;49.484;11.112;2023-02-28T11:32:32;14.47;;;10.03;;
2720;SDS011;1368;49.484;11.112;2023-02-28T11:34:43;13.57;;;9.57;;
2720;SDS011;1368;49.484;11.112;2023-02-28T11:37:14;13.37;;;9.27;;
2720;SDS011;1368;49.484;11.112;2023-02-28T11:39:43;17.50;;;9.50;;
2720;SDS011;1368;49.484;11.112;2023-02-28T11:55:37;15.57;;;9.90;;
2720;SDS011;1368;49.484;11.112;2023-02-28T12:04:09;13.10;;;9.13;;
2720;SDS011;1368;49.484;11.112;2023-02-28T12:12:07;14.43;;;8.90;;
2720;SDS011;1368;49.484;11.112;2023-02-28T12:14:58;13.33;;;8.80;;
2720;SDS011;1368;49.484;11.112;2023-02-28T12:17:51;13.97;;;8.07;;
2720;SDS011;1368;49.484;11.112;2023-02-28T12:23:14;12.57;;;7.70;;
2720;SDS011;1368;49.484;11.112;2023-02-28T12:28:42;10.60;;;8.33;;
2720;SDS011;1368;49.484;11.112;2023-02-28T12:31:21;10.63;;;8.90;;
2720;SDS011;1368;49.484;11.112;2023-02-28T12:33:53;17.43;;;8.67;;
2720;SDS011;1368;49.484;11.112;2023-02-28T12:36:28;14.37;;;7.43;;
2720;SDS011;1368;49.484;11.112;2023-02-28T12:38:56;12.13;;;9.40;;
2720;SDS011;1368;49.484;11.112;2023-02-28T12:41:33;10.87;;;8.10;;
2720;SDS011;1368;49.484;11.112;2023-02-28T12:44:19;16.83;;;9.90;;
2720;SDS011;1368;49.484;11.112;2023-02-28T12:46:54;14.53;;;9.57;;
2720;SDS011;1368;49.484;11.112;2023-02-28T12:49:25;13.63;;;8.57;;
2720;SDS011;1368;49.484;11.112;2023-02-28T12:51:56;13.80;;;9.80;;
2720;SDS011;1368;49.484;11.112;2023-02-28T12:59:53;18.23;;;10.13;;
2720;SDS011;1368;49.484;11.112;2023-02-28T13:10:48;12.37;;;9.00;;
2720;SDS011;1368;49.484;11.112;2023-02-28T13:13:19;19.00;;;9.70;;
2720;SDS011;1368;49.484;11.112;2023-02-28T13:18:34;15.37;;;10.33;;
2720;SDS011;1368;49.484;11.112;2023-02-28T13:21:02;16.33;;;11.07;;
2720;SDS011;1368;49.484;11.112;2023-02-28T13:23:36;15.40;;;10.27;;
2720;SDS011;1368;49.484;11.112;2023-02-28T13:26:03;17.50;;;11.40;;
2720;SDS011;1368;49.484;11.112;2023-02-28T13:31:29;15.57;;;8.93;;
2720;SDS011;1368;49.484;11.112;2023-02-28T13:36:28;18.03;;;11.50;;
2720;SDS011;1368;49.484;11.112;2023-02-28T13:38:56;19.73;;;13.37;;
2720;SDS011;1368;49.484;11.112;2023-02-28T13:54:58;18.30;;;12.23;;
2720;SDS011;1368;49.484;11.112;2023-02-28T14:06:09;12.40;;;8.90;;
2720;SDS011;1368;49.484;11.112;2023-02-28T14:08:52;20.93;;;11.70;;
2720;SDS011;1368;49.484;11.112;2023-02-28T14:17:02;16.77;;;11.30;;
2720;SDS011;1368;49.484;11.112;2023-02-28T14:19:30;16.63;;;11.13;;
2720;SDS011;1368;49.484;11.112;2023-02-28T14:25:07;17.43;;;9.77;;
2720;SDS011;1368;49.484;11.112;2023-02-28T14:30:51;18.63;;;10.57;;
2720;SDS011;1368;49.484;11.112;2023-02-28T14:33:35;15.40;;;10.37;;
2720;SDS011;1368;49.484;11.112;2023-02-28T14:36:25;19.57;;;12.00;;
2720;SDS011;1368;49.484;11.112;2023-02-28T14:38:56;17.10;;;10.93;;
2720;SDS011;1368;49.484;11.112;2023-02-28T14:41:31;16.57;;;11.93;;
2720;SDS011;1368;49.484;11.112;2023-02-28T14:44:12;17.83;;;11.70;;
2720;SDS011;1368;49.484;11.112;2023-02-28T14:46:38;14.80;;;11.40;;
2720;SDS011;1368;49.484;11.112;2023-02-28T14:49:06;16.57;;;12.03;;
2720;SDS011;1368;49.484;11.112;2023-02-28T14:54:42;17.43;;;11.73;;
2720;SDS011;1368;49.484;11.112;2023-02-28T14:57:22;16.50;;;10.87;;
2720;SDS011;1368;49.484;11.112;2023-02-28T15:00:03;14.40;;;10.50;;
2720;SDS011;1368;49.484;11.112;2023-02-28T15:02:30;12.50;;;8.03;;
2720;SDS011;1368;49.484;11.112;2023-02-28T15:05:00;13.90;;;9.97;;
2720;SDS011;1368;49.484;11.112;2023-02-28T15:07:35;16.40;;;11.90;;
2720;SDS011;1368;49.484;11.112;2023-02-28T15:10:34;15.67;;;10.60;;
2720;SDS011;1368;49.484;11.112;2023-02-28T15:12:59;16.53;;;10.50;;
2720;SDS011;1368;49.484;11.112;2023-02-28T15:16:09;19.67;;;11.10;;
2720;SDS011;1368;49.484;11.112;2023-02-28T15:20:49;17.27;;;11.20;;
2720;SDS011;1368;49.484;11.112;2023-02-28T15:23:15;18.43;;;11.83;;
2720;SDS011;1368;49.484;11.112;2023-02-28T15:25:43;18.77;;;10.80;;
2720;SDS011;1368;49.484;11.112;2023-02-28T15:28:11;17.73;;;12.10;;
2720;SDS011;1368;49.484;11.112;2023-02-28T15:30:59;23.07;;;11.20;;
2720;SDS011;1368;49.484;11.112;2023-02-28T15:33:29;13.80;;;9.90;;
2720;SDS011;1368;49.484;11.112;2023-02-28T15:36:03;16.20;;;10.23;;
2720;SDS011;1368;49.484;11.112;2023-02-28T15:38:38;13.30;;;10.30;;
2720;SDS011;1368;49.484;11.112;2023-02-28T15:41:03;21.53;;;11.93;;
2720;SDS011;1368;49.484;11.112;2023-02-28T15:43:36;16.93;;;12.23;;
2720;SDS011;1368;49.484;11.112;2023-02-28T15:46:11;14.17;;;10.10;;
2720;SDS011;1368;49.484;11.112;2023-02-28T15:48:54;19.30;;;14.60;;
2720;SDS011;1368;49.484;11.112;2023-02-28T15:51:33;17.07;;;11.43;;
2720;SDS011;1368;49.484;11.112;2023-02-28T15:54:02;12.20;;;9.10;;
2720;SDS011;1368;49.484;11.112;2023-02-28T15:56:46;16.73;;;11.00;;
2720;SDS011;1368;49.484;11.112;2023-02-28T15:59:19;16.80;;;12.57;;
2720;SDS011;1368;49.484;11.112;2023-02-28T16:02:02;16.40;;;11.20;;
2720;SDS011;1368;49.484;11.112;2023-02-28T16:04:54;16.50;;;12.30;;
2720;SDS011;1368;49.484;11.112;2023-02-28T16:07:21;16.20;;;11.00;;
2720;SDS011;1368;49.484;11.112;2023-02-28T16:09:46;18.80;;;11.60;;
2720;SDS011;1368;49.484;11.112;2023-02-28T16:12:13;17.03;;;11.83;;
2720;SDS011;1368;49.484;11.112;2023-02-28T16:14:38;22.90;;;13.03;;
2720;SDS011;1368;49.484;11.112;2023-02-28T16:17:06;22.83;;;13.13;;
2720;SDS011;1368;49.484;11.112;2023-02-28T16:19:37;20.70;;;12.60;;
2720;SDS011;1368;49.484;11.112;2023-02-28T16:22:02;18.53;;;11.47;;
2720;SDS011;1368;49.484;11.112;2023-02-28T16:24:28;19.93;;;12.23;;
2720;SDS011;1368;49.484;11.112;2023-02-28T16:26:54;19.13;;;11.77;;
2720;SDS011;1368;49.484;11.112;2023-02-28T16:29:26;19.00;;;11.97;;
2720;SDS011;1368;49.484;11.112;2023-02-28T16:31:57;18.67;;;11.53;;
2720;SDS011;1368;49.484;11.112;2023-02-28T16:34:23;18.43;;;11.43;;
2720;SDS011;1368;49.484;11.112;2023-02-28T16:36:49;16.63;;;11.70;;
2720;SDS011;1368;49.484;11.112;2023-02-28T16:39:15;17.63;;;12.13;;
2720;SDS011;1368;49.484;11.112;2023-02-28T16:41:42;21.47;;;12.50;;
2720;SDS011;1368;49.484;11.112;2023-02-28T16:44:10;17.23;;;11.80;;
2720;SDS011;1368;49.484;11.112;2023-02-28T16:46:54;17.50;;;12.20;;
2720;SDS011;1368;49.484;11.112;2023-02-28T16:49:20;18.63;;;12.40;;
2720;SDS011;1368;49.484;11.112;2023-02-28T16:51:45;15.47;;;11.70;;
2720;SDS011;1368;49.484;11.112;2023-02-28T16:54:11;16.90;;;11.67;;
2720;SDS011;1368;49.484;11.112;2023-02-28T16:56:37;17.23;;;12.07;;
2720;SDS011;1368;49.484;11.112;2023-02-28T16:59:07;16.60;;;11.87;;
2720;SDS011;1368;49.484;11.112;2023-02-28T17:01:33;21.20;;;12.23;;
2720;SDS011;1368;49.484;11.112;2023-02-28T17:03:59;15.43;;;11.33;;
2720;SDS011;1368;49.484;11.112;2023-02-28T17:06:26;18.63;;;14.03;;
2720;SDS011;1368;49.484;11.112;2023-02-28T17:08:54;15.13;;;11.07;;
2720;SDS011;1368;49.484;11.112;2023-02-28T17:11:20;24.80;;;12.00;;
2720;SDS011;1368;49.484;11.112;2023-02-28T17:13:46;18.50;;;13.30;;
2720;SDS011;1368;49.484;11.112;2023-02-28T17:16:29;18.83;;;13.00;;
2720;SDS011;1368;49.484;11.112;2023-02-28T17:19:00;20.40;;;12.97;;
2720;SDS011;1368;49.484;11.112;2023-02-28T17:21:28;18.40;;;12.63;;
2720;SDS011;1368;49.484;11.112;2023-02-28T17:23:55;15.10;;;11.13;;
2720;SDS011;1368;49.484;11.112;2023-02-28T17:26:21;20.37;;;15.10;;
2720;SDS011;1368;49.484;11.112;2023-02-28T17:28:49;19.70;;;12.20;;
2720;SDS011;1368;49.484;11.112;2023-02-28T17:31:16;27.23;;;14.97;;
2720;SDS011;1368;49.484;11.112;2023-02-28T17:33:42;20.00;;;12.67;;
2720;SDS011;1368;49.484;11.112;2023-02-28T17:36:13;19.87;;;12.63;;
2720;SDS011;1368;49.484;11.112;2023-02-28T17:38:40;18.37;;;12.30;;